Time;durP1;ratioP1;P1;durP2;ratioP2;P2;SDS_P1;SDS_P2;PMS_P1;PMS_P2;Temp;Humidity;BMP_temperature;BMP_pressure;BME280_temperature;BME280_humidity;BME280_pressure;Samples;Min_cycle;Max_cycle;Signal;HPM_P1;HPM_P2
2023/02/05 00:01:20;;;;;;;2.97;1.73;;;;;;;;;;5047512;28;20056;-47
2023/02/05 00:03:47;;;;;;;2.78;1.83;;;;;;;;;;5063088;28;20032;-47
2023/02/05 00:06:12;;;;;;;3.55;1.92;;;0.70;99.90;;;;;;5062682;28;20047;-48
2023/02/05 00:08:38;;;;;;;5.80;2.75;;;0.20;99.90;;;;;;5050670;28;20104;-49
2023/02/05 00:11:08;;;;;;;2.65;2.15;;;;;;;;;;5059930;28;20099;-48
2023/02/05 00:13:35;;;;;;;1.23;0.90;;;0.80;99.90;;;;;;5054641;28;20025;-48
2023/02/05 00:16:01;;;;;;;2.90;2.03;;;;;;;;;;5053092;28;20043;-47
2023/02/05 00:18:27;;;;;;;4.07;2.20;;;;;;;;;;5064361;28;20027;-47
2023/02/05 00:20:53;;;;;;;2.17;1.75;;;;;;;;;;5031938;28;20044;-48
2023/02/05 00:23:19;;;;;;;5.53;2.13;;;;;;;;;;5037489;28;20041;-48
2023/02/05 00:25:45;;;;;;;4.05;2.30;;;;;;;;;;5036901;28;20052;-48
2023/02/05 00:28:11;;;;;;;2.67;1.60;;;0.90;99.90;;;;;;5044617;28;20058;-49
2023/02/05 00:30:39;;;;;;;1.23;1.13;;;0.70;99.90;;;;;;5052279;28;20060;-48
2023/02/05 00:33:05;;;;;;;4.28;2.20;;;;;;;;;;5056622;28;20025;-47
2023/02/05 00:35:31;;;;;;;2.35;1.30;;;;;;;;;;5044877;28;20056;-47
2023/02/05 00:37:57;;;;;;;3.50;2.17;;;;;;;;;;5059779;28;20037;-47
2023/02/05 00:40:23;;;;;;;2.67;1.77;;;0.90;99.90;;;;;;5055819;28;20017;-48
2023/02/05 00:42:49;;;;;;;3.47;1.27;;;;;;;;;;5062947;28;20380;-47
2023/02/05 00:45:15;;;;;;;3.10;1.70;;;1.10;99.90;;;;;;5040247;28;20091;-48
2023/02/05 00:47:41;;;;;;;2.45;1.38;;;;;;;;;;5056828;28;20534;-48
2023/02/05 00:50:07;;;;;;;1.55;1.38;;;1.00;99.90;;;;;;5062595;28;20025;-47
2023/02/05 00:52:33;;;;;;;1.92;1.48;;;0.80;99.90;;;;;;5057931;28;20163;-47
2023/02/05 00:54:59;;;;;;;1.80;1.38;;;0.70;99.90;;;;;;5057656;28;20438;-48
2023/02/05 00:57:25;;;;;;;4.63;2.95;;;0.80;99.90;;;;;;5009235;28;20507;-47
2023/02/05 00:59:51;;;;;;;2.88;1.60;;;0.90;99.90;;;;;;5059080;28;20021;-47
2023/02/05 01:02:23;;;;;;;3.97;2.50;;;0.80;99.90;;;;;;5041070;28;20041;-47
2023/02/05 01:04:50;;;;;;;2.10;1.23;;;0.80;99.90;;;;;;5049744;28;20025;-48
2023/02/05 01:07:18;;;;;;;3.17;2.38;;;0.80;99.90;;;;;;5070434;28;20476;-47
2023/02/05 01:09:44;;;;;;;4.38;1.58;;;0.80;99.90;;;;;;5067511;28;20064;-47
2023/02/05 01:12:10;;;;;;;5.10;2.33;;;0.70;99.90;;;;;;5069240;28;20035;-48
2023/02/05 01:14:35;;;;;;;1.73;1.45;;;0.80;99.90;;;;;;5035957;28;20131;-48
2023/02/05 01:17:01;;;;;;;4.68;2.28;;;0.70;99.90;;;;;;5073080;28;20036;-47
2023/02/05 01:19:27;;;;;;;2.25;1.35;;;0.70;99.90;;;;;;5073112;28;20024;-48
2023/02/05 01:21:53;;;;;;;3.22;2.25;;;0.70;99.90;;;;;;5073027;28;20550;-47
2023/02/05 01:24:18;;;;;;;2.95;1.55;;;0.70;99.90;;;;;;5073300;28;20527;-47
2023/02/05 01:26:44;;;;;;;2.78;1.48;;;0.80;99.90;;;;;;5071879;28;20044;-45
2023/02/05 01:29:10;;;;;;;3.40;1.70;;;0.70;99.90;;;;;;5070647;28;20514;-47
2023/02/05 01:31:35;;;;;;;5.00;1.60;;;0.70;99.90;;;;;;5073329;28;20038;-47
2023/02/05 01:34:01;;;;;;;3.03;1.95;;;0.80;99.90;;;;;;5073151;28;20123;-47
2023/02/05 01:36:27;;;;;;;1.77;1.60;;;0.70;99.90;;;;;;5040161;28;20051;-47
2023/02/05 01:38:53;;;;;;;2.28;1.55;;;0.70;99.90;;;;;;5059717;28;20043;-47
2023/02/05 01:41:19;;;;;;;3.80;1.88;;;0.70;99.90;;;;;;5056107;28;20021;-47
2023/02/05 01:44:04;;;;;;;1.70;1.60;;;0.80;99.90;;;;;;5045308;28;20087;-47
2023/02/05 01:46:30;;;;;;;3.42;2.03;;;0.60;99.90;;;;;;5054100;28;20405;-47
2023/02/05 01:48:57;;;;;;;3.80;1.50;;;0.70;99.90;;;;;;5055606;28;20033;-47
2023/02/05 01:51:25;;;;;;;1.30;1.20;;;0.60;99.90;;;;;;5055356;28;20032;-47
2023/02/05 01:53:51;;;;;;;1.42;1.30;;;0.50;99.90;;;;;;5055527;28;20029;-47
2023/02/05 01:56:29;;;;;;;3.50;2.22;;;0.50;99.90;;;;;;5019454;28;20119;-47
2023/02/05 01:58:56;;;;;;;2.60;1.52;;;0.60;99.90;;;;;;5020388;28;20068;-46
2023/02/05 02:01:24;;;;;;;3.20;1.83;;;0.50;99.90;;;;;;5052609;28;20075;-47
2023/02/05 02:03:52;;;;;;;4.50;2.35;;;0.50;99.90;;;;;;5069920;28;20488;-46
2023/02/05 02:06:18;;;;;;;3.17;1.80;;;0.50;99.90;;;;;;5054957;28;20411;-47
2023/02/05 02:08:44;;;;;;;1.15;1.05;;;0.50;99.90;;;;;;5054840;28;20033;-47
2023/02/05 02:11:16;;;;;;;3.42;1.67;;;0.50;99.90;;;;;;5054970;28;20054;-47
2023/02/05 02:13:45;;;;;;;2.72;1.80;;;0.40;99.90;;;;;;5055506;28;20064;-47
2023/02/05 02:16:11;;;;;;;3.58;2.05;;;0.50;99.90;;;;;;5055517;28;20045;-47
2023/02/05 02:18:38;;;;;;;1.80;1.33;;;0.50;99.90;;;;;;5055467;28;20032;-47
2023/02/05 02:21:06;;;;;;;1.73;1.10;;;0.40;99.90;;;;;;5055506;28;20017;-46
2023/02/05 02:23:42;;;;;;;4.40;2.50;;;0.40;99.90;;;;;;5055123;28;20025;-47
2023/02/05 02:26:22;;;;;;;4.93;1.98;;;0.40;99.90;;;;;;5055254;28;20021;-46
2023/02/05 02:28:59;;;;;;;4.30;1.75;;;0.50;99.90;;;;;;5036019;28;20041;-46
2023/02/05 02:31:32;;;;;;;3.88;2.10;;;0.50;99.90;;;;;;5053314;28;20037;-46
2023/02/05 02:34:15;;;;;;;4.35;2.60;;;0.60;99.90;;;;;;5055222;28;20487;-47
2023/02/05 02:36:45;;;;;;;5.70;1.83;;;0.50;99.90;;;;;;5055012;28;20033;-47
2023/02/05 02:39:21;;;;;;;3.38;2.13;;;0.50;99.90;;;;;;5036555;28;20170;-47
2023/02/05 02:41:52;;;;;;;3.75;2.13;;;0.50;99.90;;;;;;5055069;28;20021;-46
2023/02/05 02:44:24;;;;;;;7.35;2.83;;;0.50;99.90;;;;;;5055183;28;20453;-48
2023/02/05 02:46:53;;;;;;;1.77;1.63;;;0.50;99.90;;;;;;5054732;28;20040;-47
2023/02/05 02:49:28;;;;;;;4.10;2.50;;;0.50;99.90;;;;;;5054891;28;20477;-48
2023/02/05 02:51:56;;;;;;;5.13;3.17;;;0.50;99.90;;;;;;5054808;28;20025;-47
2023/02/05 02:54:25;;;;;;;3.05;2.13;;;0.40;99.90;;;;;;5054910;28;20130;-47
2023/02/05 02:56:53;;;;;;;3.95;2.70;;;0.30;99.90;;;;;;5054541;28;20053;-47
2023/02/05 02:59:24;;;;;;;3.78;2.47;;;0.10;99.90;;;;;;5055025;28;20032;-47
2023/02/05 03:01:55;;;;;;;4.80;3.20;;;0.30;99.90;;;;;;5055012;28;20634;-47
2023/02/05 03:04:38;;;;;;;5.35;3.08;;;0.60;99.90;;;;;;5054628;28;20056;-47
2023/02/05 03:07:23;;;;;;;5.22;2.75;;;0.40;99.90;;;;;;5054602;28;20102;-47
2023/02/05 03:09:51;;;;;;;3.58;1.75;;;0.10;99.90;;;;;;5054415;28;20064;-47
2023/02/05 03:12:18;;;;;;;2.92;2.60;;;0.20;99.90;;;;;;5054813;28;20025;-47
2023/02/05 03:14:44;;;;;;;3.20;2.88;;;0.60;99.90;;;;;;5054178;28;20074;-47
2023/02/05 03:17:17;;;;;;;4.13;2.70;;;;;;;;;;5086662;28;20025;-47
2023/02/05 03:19:45;;;;;;;5.07;3.33;;;0.00;99.90;;;;;;5054657;28;20029;-47
2023/02/05 03:22:11;;;;;;;5.88;2.53;;;;;;;;;;5035581;28;20036;-46
2023/02/05 03:24:38;;;;;;;4.25;2.20;;;0.50;99.90;;;;;;5054097;28;20021;-46
2023/02/05 03:27:04;;;;;;;3.83;2.20;;;-0.10;99.90;;;;;;5019077;28;20094;-47
2023/02/05 03:29:34;;;;;;;2.50;2.28;;;0.30;99.90;;;;;;5085684;28;20041;-47
2023/02/05 03:32:12;;;;;;;3.17;1.80;;;0.30;99.90;;;;;;5053825;28;20033;-47
2023/02/05 03:34:59;;;;;;;4.05;2.40;;;0.20;99.90;;;;;;5035244;28;20029;-47
2023/02/05 03:37:32;;;;;;;4.35;2.70;;;0.20;99.90;;;;;;5052031;28;20033;-46
2023/02/05 03:40:20;;;;;;;3.35;2.38;;;0.30;99.90;;;;;;5053897;28;20094;-47
2023/02/05 03:43:11;;;;;;;3.03;2.47;;;0.10;99.90;;;;;;5054067;28;20025;-47
2023/02/05 03:45:57;;;;;;;5.63;2.33;;;0.70;99.90;;;;;;5053687;28;20078;-47
2023/02/05 03:48:52;;;;;;;4.88;2.70;;;0.00;99.90;;;;;;5035282;28;20036;-47
2023/02/05 03:51:18;;;;;;;4.57;2.80;;;;;;;;;;5053912;28;20499;-47
2023/02/05 03:54:06;;;;;;;4.15;2.50;;;0.10;99.90;;;;;;5053444;28;20029;-47
2023/02/05 03:56:58;;;;;;;4.75;2.83;;;0.70;99.90;;;;;;5053607;28;20053;-47
2023/02/05 03:59:25;;;;;;;4.43;2.50;;;0.70;99.90;;;;;;5053603;28;20025;-47
2023/02/05 04:01:53;;;;;;;5.20;2.60;;;0.60;99.90;;;;;;5034868;28;20048;-47
2023/02/05 04:04:20;;;;;;;3.53;2.03;;;0.50;99.90;;;;;;5053511;28;20037;-47
2023/02/05 04:06:48;;;;;;;5.13;2.80;;;0.70;99.90;;;;;;5051665;28;20040;-47
2023/02/05 04:09:14;;;;;;;3.92;2.55;;;0.50;99.90;;;;;;5053728;28;20044;-47
2023/02/05 04:11:39;;;;;;;6.10;3.80;;;0.50;99.90;;;;;;5085531;28;20485;-47
2023/02/05 04:14:05;;;;;;;3.90;2.85;;;0.70;99.90;;;;;;5053189;28;20067;-47
2023/02/05 04:16:31;;;;;;;4.47;2.60;;;1.20;99.90;;;;;;5053528;28;20025;-47
2023/02/05 04:18:57;;;;;;;4.05;2.17;;;0.90;99.90;;;;;;5053041;28;20021;-47
2023/02/05 04:21:22;;;;;;;6.13;3.38;;;1.10;99.90;;;;;;5051390;28;20049;-47
2023/02/05 04:23:48;;;;;;;4.25;3.40;;;1.10;99.90;;;;;;5084488;28;20048;-47
2023/02/05 04:26:14;;;;;;;4.07;2.58;;;1.30;99.90;;;;;;5052908;28;20032;-47
2023/02/05 04:28:40;;;;;;;6.35;2.53;;;0.70;99.90;;;;;;5053042;28;20060;-47
2023/02/05 04:31:11;;;;;;;4.18;2.33;;;1.10;99.90;;;;;;5053114;28;20029;-47
2023/02/05 04:33:37;;;;;;;5.28;3.00;;;0.80;99.90;;;;;;5053096;28;20036;-47
2023/02/05 04:36:03;;;;;;;3.25;1.92;;;0.70;99.90;;;;;;5053063;28;20025;-47
2023/02/05 04:38:29;;;;;;;2.70;1.27;;;;;;;;;;5053239;28;20044;-47
2023/02/05 04:40:56;;;;;;;4.90;2.65;;;;;;;;;;5052765;28;20029;-48
2023/02/05 04:43:22;;;;;;;4.00;1.95;;;;;;;;;;5053092;28;20029;-47
2023/02/05 04:45:48;;;;;;;3.90;1.58;;;0.00;99.90;;;;;;5052960;28;20104;-47
2023/02/05 04:48:14;;;;;;;6.30;2.83;;;0.30;99.90;;;;;;5053787;28;20060;-47
2023/02/05 04:50:40;;;;;;;5.03;3.13;;;;;;;;;;5053379;28;20035;-47
2023/02/05 04:53:06;;;;;;;6.82;3.28;;;0.70;99.90;;;;;;5069003;28;20128;-46
2023/02/05 04:55:32;;;;;;;4.88;2.58;;;0.00;99.90;;;;;;5086087;28;20068;-47
2023/02/05 04:57:58;;;;;;;5.88;2.22;;;;;;;;;;5053919;28;20052;-47
2023/02/05 05:00:24;;;;;;;4.00;2.55;;;;;;;;;;5053379;28;20043;-49
2023/02/05 05:02:51;;;;;;;4.38;2.78;;;;;;;;;;5052281;28;20112;-47
2023/02/05 05:05:17;;;;;;;5.75;2.25;;;;;;;;;;5052103;28;20029;-47
2023/02/05 05:07:43;;;;;;;5.22;3.05;;;;;;;;;;5053144;28;20033;-47
2023/02/05 05:10:09;;;;;;;4.03;2.25;;;;;;;;;;5067123;28;20041;-47
2023/02/05 05:12:36;;;;;;;2.85;1.85;;;0.30;99.90;;;;;;5052926;28;20029;-47
2023/02/05 05:15:02;;;;;;;5.32;1.50;;;;;;;;;;5052721;28;20174;-46
2023/02/05 05:17:28;;;;;;;2.78;1.80;;;0.10;99.90;;;;;;5067463;28;20180;-47
2023/02/05 05:19:54;;;;;;;2.55;1.85;;;;;;;;;;5052636;28;20058;-47
2023/02/05 05:22:20;;;;;;;3.75;2.20;;;;;;;;;;5067324;28;20526;-47
2023/02/05 05:24:46;;;;;;;2.22;1.35;;;;;;;;;;5066848;28;20493;-47
2023/02/05 05:27:12;;;;;;;3.00;1.95;;;;;;;;;;5067265;28;20044;-47
2023/02/05 05:29:39;;;;;;;2.33;1.65;;;;;;;;;;5051792;28;20366;-47
2023/02/05 05:32:05;;;;;;;4.63;1.63;;;;;;;;;;5052458;28;20393;-47
2023/02/05 05:34:31;;;;;;;2.38;1.63;;;;;;;;;;5052206;28;20029;-47
2023/02/05 05:36:57;;;;;;;3.03;2.03;;;;;;;;;;5052297;28;20477;-47
2023/02/05 05:44:54;;;;;;;2.15;1.45;;;;;;;;;;5052554;28;20040;-47
2023/02/05 05:47:20;;;;;;;2.63;1.90;;;;;;;;;;5052267;28;20120;-47
2023/02/05 05:49:46;;;;;;;2.97;1.73;;;;;;;;;;5052401;28;20130;-46
2023/02/05 05:52:13;;;;;;;3.00;2.20;;;;;;;;;;5052161;28;20560;-47
2023/02/05 05:54:39;;;;;;;3.90;2.17;;;;;;;;;;5033140;28;20052;-48
2023/02/05 05:57:06;;;;;;;5.22;4.50;;;;;;;;;;5052037;28;20057;-47
2023/02/05 05:59:32;;;;;;;3.17;1.85;;;;;;;;;;5066748;28;20638;-47
2023/02/05 06:02:00;;;;;;;4.65;3.17;;;;;;;;;;5052503;28;20088;-46
2023/02/05 06:04:25;;;;;;;3.00;2.65;;;0.00;99.90;;;;;;5055795;28;20448;-47
2023/02/05 06:06:53;;;;;;;4.53;2.30;;;-0.10;99.90;;;;;;5055680;28;20068;-46
2023/02/05 06:09:20;;;;;;;3.03;1.85;;;-0.20;99.90;;;;;;5055713;28;20032;-47
2023/02/05 06:11:49;;;;;;;6.35;2.50;;;-0.20;99.90;;;;;;5055971;28;20090;-47
2023/02/05 06:14:15;;;;;;;5.47;3.00;;;-0.20;99.90;;;;;;5055482;28;20041;-47
2023/02/05 06:16:41;;;;;;;2.40;1.73;;;-0.10;99.90;;;;;;5055123;28;20044;-47
2023/02/05 06:19:07;;;;;;;4.32;3.35;;;-0.30;99.90;;;;;;5055751;28;20027;-47
2023/02/05 06:21:32;;;;;;;4.82;2.75;;;0.00;99.90;;;;;;5055356;28;20029;-47
2023/02/05 06:23:58;;;;;;;3.03;2.60;;;-0.10;99.90;;;;;;5055498;28;20118;-47
2023/02/05 06:26:24;;;;;;;4.32;2.90;;;0.00;99.90;;;;;;5055739;28;20071;-46
2023/02/05 06:28:50;;;;;;;3.45;1.95;;;0.60;99.90;;;;;;5087149;28;20076;-46
2023/02/05 06:31:16;;;;;;;5.47;3.20;;;2.10;99.90;;;;;;5055260;28;20036;-46
2023/02/05 06:33:42;;;;;;;5.18;2.13;;;;;;;;;;5055416;28;20036;-47
2023/02/05 06:36:08;;;;;;;5.28;3.63;;;;;;;;;;5069777;28;20080;-47
2023/02/05 06:38:34;;;;;;;5.40;3.80;;;4.60;99.90;;;;;;5070244;28;20581;-47
2023/02/05 06:41:00;;;;;;;4.45;3.60;;;;;;;;;;5055719;28;20119;-47
2023/02/05 06:43:26;;;;;;;5.55;3.50;;;6.30;99.90;;;;;;5055394;28;20033;-46
2023/02/05 06:45:52;;;;;;;9.32;3.70;;;7.20;99.90;;;;;;5055119;28;20372;-47
2023/02/05 06:48:18;;;;;;;6.28;4.07;;;;;;;;;;5055725;28;20037;-47
2023/02/05 06:50:44;;;;;;;5.53;3.40;;;4.20;99.90;;;;;;5055193;28;20025;-47
2023/02/05 06:53:10;;;;;;;5.25;4.07;;;;;;;;;;5055366;28;20124;-48
2023/02/05 06:55:37;;;;;;;6.22;3.60;;;;;;;;;;5055572;28;20049;-47
2023/02/05 06:58:03;;;;;;;7.88;4.40;;;3.00;99.90;;;;;;5069583;28;20045;-47
2023/02/05 07:00:29;;;;;;;7.07;4.55;;;2.60;99.90;;;;;;5053407;28;20033;-47
2023/02/05 07:02:55;;;;;;;8.88;5.75;;;;;;;;;;5052750;28;20051;-47
2023/02/05 07:05:21;;;;;;;6.95;5.10;;;;;;;;;;5054925;28;20032;-47
2023/02/05 07:07:47;;;;;;;10.43;6.10;;;1.70;99.90;;;;;;5054588;28;20041;-47
2023/02/05 07:10:13;;;;;;;9.75;6.38;;;1.90;99.90;;;;;;5054506;28;20100;-47
2023/02/05 07:12:39;;;;;;;7.95;5.75;;;;;;;;;;5054328;28;20036;-47
2023/02/05 07:15:06;;;;;;;4.90;3.13;;;;;;;;;;5068886;28;20095;-47
2023/02/05 07:17:32;;;;;;;8.50;3.75;;;;;;;;;;5035937;28;20044;-47
2023/02/05 07:19:58;;;;;;;7.55;4.43;;;;;;;;;;5054579;28;20646;-47
2023/02/05 07:22:24;;;;;;;11.00;5.72;;;1.30;99.90;;;;;;5052552;28;20041;-47
2023/02/05 07:24:50;;;;;;;11.75;7.43;;;1.20;99.90;;;;;;5052326;28;20048;-48
2023/02/05 07:27:16;;;;;;;12.13;7.40;;;1.20;99.90;;;;;;5054361;28;20033;-47
2023/02/05 07:29:42;;;;;;;16.40;8.00;;;;;;;;;;5052300;28;20047;-47
2023/02/05 07:32:08;;;;;;;6.82;4.60;;;;;;;;;;5053576;28;20035;-47
2023/02/05 07:34:34;;;;;;;5.47;3.10;;;;;;;;;;5054111;28;20071;-47
2023/02/05 07:37:00;;;;;;;11.32;6.45;;;;;;;;;;5068429;28;20045;-47
2023/02/05 07:39:27;;;;;;;10.73;6.10;;;5.10;99.90;;;;;;5053525;28;20037;-47
2023/02/05 07:41:53;;;;;;;7.40;4.43;;;4.90;99.90;;;;;;5053699;28;20029;-48
2023/02/05 07:44:19;;;;;;;4.82;3.40;;;4.30;99.90;;;;;;5053181;28;20067;-47
2023/02/05 07:46:45;;;;;;;3.80;2.72;;;3.60;99.90;;;;;;5053522;28;20029;-47
2023/02/05 07:49:11;;;;;;;8.43;5.03;;;3.20;99.90;;;;;;5052964;28;20370;-47
2023/02/05 07:51:37;;;;;;;7.60;4.80;;;3.30;99.90;;;;;;5053728;28;20358;-48
2023/02/05 07:54:07;;;;;;;7.05;4.18;;;3.40;99.90;;;;;;5053685;28;20041;-47
2023/02/05 07:56:33;;;;;;;8.98;3.88;;;3.20;99.90;;;;;;5055924;28;20045;-47
2023/02/05 07:58:59;;;;;;;27.80;17.17;;;3.60;99.90;;;;;;5058059;28;20033;-47
2023/02/05 08:01:25;;;;;;;7.18;5.88;;;4.80;99.90;;;;;;5060407;28;20033;-49
2023/02/05 08:03:50;;;;;;;6.65;5.95;;;5.90;99.10;;;;;;5086880;28;20113;-47
2023/02/05 08:06:17;;;;;;;205.40;127.72;;;;;;;;;;5063065;28;20108;-48
2023/02/05 08:08:43;;;;;;;9.35;7.85;;;;;;;;;;5059396;28;20158;-46
2023/02/05 08:11:16;;;;;;;46.90;24.63;;;;;;;;;;5058607;28;20389;-47
2023/02/05 08:13:43;;;;;;;8.52;7.78;;;;;;;;;;5055207;28;20032;-46
2023/02/05 08:16:10;;;;;;;11.35;10.35;;;10.20;91.60;;;;;;5068440;28;20052;-48
2023/02/05 08:18:36;;;;;;;23.65;13.27;;;11.10;96.00;;;;;;5044802;28;20538;-55
2023/02/05 08:21:02;;;;;;;25.00;14.40;;;;;;;;;;5052704;28;20029;-47
2023/02/05 08:23:28;;;;;;;9.90;7.40;;;12.80;86.10;;;;;;5053075;28;20037;-48
2023/02/05 08:25:54;;;;;;;7.05;4.95;;;;;;;;;;5052956;28;20044;-47
2023/02/05 08:28:20;;;;;;;8.90;5.00;;;11.50;81.40;;;;;;5053238;28;20033;-47
2023/02/05 08:30:46;;;;;;;4.10;2.83;;;;;;;;;;5052767;28;20033;-47
2023/02/05 08:33:12;;;;;;;7.05;4.07;;;6.20;92.40;;;;;;5059361;28;20504;-48
2023/02/05 08:35:37;;;;;;;12.85;7.20;;;5.20;91.70;;;;;;5052713;28;20045;-47
2023/02/05 08:38:04;;;;;;;8.07;4.97;;;;;;;;;;5052322;28;20033;-47
2023/02/05 08:40:29;;;;;;;5.25;3.17;;;4.10;93.20;;;;;;5083721;28;20120;-47
2023/02/05 08:42:56;;;;;;;11.63;4.90;;;3.90;87.10;;;;;;5052996;28;20163;-47
2023/02/05 08:45:23;;;;;;;6.65;3.55;;;3.50;99.90;;;;;;5051576;28;20040;-47
2023/02/05 08:47:49;;;;;;;6.07;2.95;;;;;;;;;;5052389;28;20072;-47
2023/02/05 08:50:16;;;;;;;4.05;2.60;;;;;;;;;;5052851;28;20473;-48
2023/02/05 08:52:42;;;;;;;3.22;2.15;;;;;;;;;;5052400;28;20028;-47
2023/02/05 08:55:08;;;;;;;2.75;1.90;;;2.40;90.50;;;;;;5052176;28;20041;-46
2023/02/05 08:57:34;;;;;;;4.43;2.80;;;2.50;90.60;;;;;;5052192;28;20135;-47
2023/02/05 08:59:59;;;;;;;3.72;2.35;;;2.50;91.40;;;;;;5052998;28;20448;-47
2023/02/05 09:02:25;;;;;;;4.10;2.60;;;2.60;97.20;;;;;;5034096;28;20080;-46
2023/02/05 09:04:51;;;;;;;4.47;2.75;;;2.40;92.30;;;;;;5052746;28;20428;-47
2023/02/05 09:07:17;;;;;;;5.13;2.92;;;2.50;98.80;;;;;;5084588;28;20144;-47
2023/02/05 09:09:42;;;;;;;4.57;2.88;;;2.40;92.30;;;;;;5052550;28;20037;-47
2023/02/05 09:12:11;;;;;;;11.43;4.25;;;2.30;91.30;;;;;;5084429;28;20044;-47
2023/02/05 09:14:39;;;;;;;5.15;2.78;;;2.10;95.70;;;;;;5051739;28;20033;-47
2023/02/05 09:17:06;;;;;;;5.57;2.70;;;2.20;91.60;;;;;;5051882;28;20044;-47
2023/02/05 09:19:37;;;;;;;7.65;3.65;;;2.00;95.00;;;;;;5048789;28;20378;-47
2023/02/05 09:22:05;;;;;;;3.70;3.08;;;2.10;91.80;;;;;;5051900;28;20053;-47
2023/02/05 09:24:30;;;;;;;4.68;3.00;;;2.40;95.70;;;;;;5016313;28;20049;-47
2023/02/05 09:26:56;;;;;;;9.05;3.78;;;2.50;91.60;;;;;;5049448;28;20437;-47
2023/02/05 09:29:22;;;;;;;8.77;3.97;;;2.90;91.60;;;;;;5051528;28;20100;-47
2023/02/05 09:31:48;;;;;;;4.93;3.53;;;;;;;;;;5032774;28;20072;-47
2023/02/05 09:34:14;;;;;;;11.60;5.53;;;2.60;91.70;;;;;;5051517;28;20033;-47
2023/02/05 09:36:40;;;;;;;7.43;3.58;;;2.40;91.60;;;;;;5053271;28;20059;-47
2023/02/05 09:39:08;;;;;;;13.52;4.65;;;2.40;91.60;;;;;;5057033;28;20075;-48
2023/02/05 09:42:01;;;;;;;7.05;3.55;;;2.50;91.50;;;;;;5056448;28;20024;-48
2023/02/05 09:44:52;;;;;;;8.77;4.80;;;2.50;91.40;;;;;;5072153;28;20374;-46
2023/02/05 09:47:31;;;;;;;8.30;5.05;;;2.60;91.20;;;;;;5039516;28;20463;-47
2023/02/05 09:50:20;;;;;;;10.55;5.85;;;2.80;91.90;;;;;;5049930;28;20054;-47
2023/02/05 09:52:49;;;;;;;7.63;4.53;;;;;;;;;;5053618;28;20041;-46
2023/02/05 09:55:25;;;;;;;10.52;5.68;;;;;;;;;;5058924;28;20037;-47
2023/02/05 09:57:52;;;;;;;8.70;5.15;;;;;;;;;;5044078;28;20064;-47
2023/02/05 10:00:27;;;;;;;6.63;3.28;;;;;;;;;;5054667;28;20037;-47
2023/02/05 10:03:35;;;;;;;17.95;10.55;;;3.00;91.00;;;;;;5055046;28;20119;-47
2023/02/05 10:06:20;;;;;;;7.70;4.43;;;3.30;90.70;;;;;;5044647;28;20136;-47
2023/02/05 10:09:11;;;;;;;9.25;4.90;;;3.40;91.10;;;;;;5046997;28;20098;-47
2023/02/05 10:11:59;;;;;;;11.43;10.07;;;4.00;96.00;;;;;;5054137;28;20431;-47
2023/02/05 10:14:44;;;;;;;9.90;7.78;;;;;;;;;;5064803;28;20124;-46
2023/02/05 10:17:19;;;;;;;6.97;3.00;;;;;;;;;;5051355;28;20037;-47
2023/02/05 10:20:00;;;;;;;6.57;3.45;;;3.40;89.90;;;;;;5057481;28;20461;-46
2023/02/05 10:22:39;;;;;;;3.90;3.03;;;3.30;93.40;;;;;;5043245;28;20429;-46
2023/02/05 10:25:05;;;;;;;5.65;3.47;;;;;;;;;;5047736;28;20083;-45
2023/02/05 10:28:15;;;;;;;7.20;5.60;;;4.50;91.60;;;;;;5053327;28;20037;-46
2023/02/05 10:30:52;;;;;;;11.23;8.55;;;4.60;90.40;;;;;;5021721;28;20547;-47
2023/02/05 10:33:27;;;;;;;11.38;10.35;;;6.20;87.40;;;;;;5009399;28;20516;-46
2023/02/05 10:35:59;;;;;;;5.90;2.80;;;;;;;;;;5026059;28;20517;-46
2023/02/05 10:38:26;;;;;;;;;;;6.10;89.30;;;;;;5011554;28;20033;-46
2023/02/05 10:40:57;;;;;;;5.65;1.98;;;5.10;90.90;;;;;;5009037;28;19936;-46
2023/02/05 10:43:33;;;;;;;6.60;3.72;;;4.40;86.90;;;;;;5009627;28;20053;-46
2023/02/05 10:45:59;;;;;;;5.90;3.67;;;4.10;93.00;;;;;;5012873;28;20033;-46
2023/02/05 10:48:35;;;;;;;7.28;3.92;;;3.80;98.10;;;;;;5028517;28;20038;-46
2023/02/05 10:51:12;;;;;;;6.10;3.50;;;3.80;87.50;;;;;;5010589;28;20116;-47
2023/02/05 10:53:38;;;;;;;8.18;4.45;;;3.70;88.70;;;;;;5007026;28;20045;-47
2023/02/05 10:56:05;;;;;;;12.70;7.00;;;;;;;;;;5010571;28;20045;-46
2023/02/05 10:58:31;;;;;;;10.40;7.10;;;;;;;;;;5011130;28;20493;-45
2023/02/05 11:00:57;;;;;;;11.10;7.10;;;4.90;92.70;;;;;;5010148;28;20029;-46
2023/02/05 11:03:23;;;;;;;7.15;3.35;;;6.10;92.90;;;;;;5011490;28;20117;-48
2023/02/05 11:05:49;;;;;;;9.80;4.85;;;5.60;93.80;;;;;;5019623;28;20065;-45
2023/02/05 11:08:33;;;;;;;5.82;3.55;;;5.50;87.80;;;;;;5029198;28;20025;-48
2023/02/05 11:10:59;;;;;;;3.10;2.03;;;4.70;87.20;;;;;;5029957;28;20110;-48
2023/02/05 11:13:26;;;;;;;7.20;3.80;;;3.50;92.20;;;;;;5028170;28;20029;-47
2023/02/05 11:15:57;;;;;;;7.28;3.80;;;3.60;87.70;;;;;;5036087;28;20033;-47
2023/02/05 11:18:28;;;;;;;6.63;3.85;;;3.30;88.50;;;;;;5030468;28;20642;-47
2023/02/05 11:20:58;;;;;;;12.52;5.50;;;3.30;89.50;;;;;;5026975;28;20024;-46
2023/02/05 11:23:26;;;;;;;13.18;7.60;;;3.20;89.80;;;;;;5029894;28;20392;-47
2023/02/05 11:25:58;;;;;;;12.80;7.13;;;3.40;90.50;;;;;;5044138;28;20036;-46
2023/02/05 11:28:28;;;;;;;6.85;3.55;;;3.30;90.00;;;;;;5031100;28;20029;-47
2023/02/05 11:30:56;;;;;;;4.53;3.05;;;;;;;;;;5032183;28;20600;-47
2023/02/05 11:33:22;;;;;;;6.97;3.40;;;;;;;;;;5034946;28;20025;-47
2023/02/05 11:35:55;;;;;;;9.07;4.90;;;;;;;;;;5036867;28;20038;-46
2023/02/05 11:38:28;;;;;;;7.00;3.30;;;2.80;95.10;;;;;;5035148;28;20546;-46
2023/02/05 11:41:06;;;;;;;7.95;5.93;;;2.70;90.50;;;;;;5026365;28;20033;-46
2023/02/05 11:43:40;;;;;;;7.43;5.07;;;3.20;91.30;;;;;;5040297;28;20034;-46
2023/02/05 11:46:07;;;;;;;3.58;2.42;;;;;;;;;;5026101;28;20112;-46
2023/02/05 11:48:36;;;;;;;7.35;3.85;;;;;;;;;;5023303;28;20042;-45
2023/02/05 11:51:04;;;;;;;4.63;2.45;;;;;;;;;;5027609;28;20026;-46
2023/02/05 11:53:33;;;;;;;5.65;3.60;;;;;;;;;;5044201;28;20029;-46
2023/02/05 11:56:05;;;;;;;6.72;4.13;;;;;;;;;;5027755;28;20037;-45
2023/02/05 11:58:32;;;;;;;6.25;4.05;;;;;;;;;;5051255;28;20041;-45
2023/02/05 12:00:59;;;;;;;3.42;1.88;;;;;;;;;;5050092;28;20025;-46
2023/02/05 12:03:30;;;;;;;6.03;2.55;;;3.20;93.80;;;;;;5051658;28;20025;-46
2023/02/05 12:06:08;;;;;;;4.30;2.25;;;2.60;92.40;;;;;;5050801;28;20033;-46
2023/02/05 12:08:53;;;;;;;4.07;2.40;;;2.90;94.20;;;;;;5053918;28;20032;-48
2023/02/05 12:11:19;;;;;;;4.68;2.40;;;2.80;95.20;;;;;;5026981;28;20101;-48
2023/02/05 12:13:54;;;;;;;6.35;4.47;;;4.00;95.20;;;;;;5044505;28;20072;-48
2023/02/05 12:16:45;;;;;;;8.45;5.70;;;4.00;91.10;;;;;;5051999;28;20041;-48
2023/02/05 12:19:39;;;;;;;6.88;4.57;;;5.10;89.30;;;;;;5046725;28;20072;-48
2023/02/05 12:22:35;;;;;;;4.20;2.78;;;4.60;92.80;;;;;;5007746;28;20541;-48
2023/02/05 12:25:09;;;;;;;5.20;3.05;;;4.20;94.40;;;;;;5003458;28;20041;-47
2023/02/05 12:27:48;;;;;;;5.78;3.63;;;4.40;94.80;;;;;;5005959;28;20073;-50
2023/02/05 12:30:22;;;;;;;2.83;2.13;;;3.90;94.40;;;;;;5007071;28;20189;-49
2023/02/05 12:32:59;;;;;;;5.45;3.72;;;4.00;95.70;;;;;;5007472;28;20057;-47
2023/02/05 12:35:39;;;;;;;6.55;4.03;;;4.60;90.40;;;;;;5006578;28;20109;-47
2023/02/05 12:38:42;;;;;;;7.35;3.53;;;4.90;93.30;;;;;;5007565;28;20165;-48
2023/02/05 12:41:14;;;;;;;8.98;4.15;;;4.90;88.70;;;;;;4988839;28;20097;-47
2023/02/05 12:43:46;;;;;;;6.57;3.83;;;4.50;87.70;;;;;;4975052;28;20561;-47
2023/02/05 12:46:42;;;;;;;3.33;2.33;;;4.10;87.50;;;;;;5006261;28;20034;-47
2023/02/05 12:49:16;;;;;;;4.55;2.90;;;3.80;88.80;;;;;;5004040;28;20026;-48
2023/02/05 12:52:17;;;;;;;4.30;2.20;;;3.50;89.30;;;;;;5002836;28;20109;-47
2023/02/05 12:55:05;;;;;;;8.95;5.45;;;3.20;89.00;;;;;;5002517;28;20042;-48
2023/02/05 12:57:37;;;;;;;6.30;4.22;;;;;;;;;;5005918;28;20054;-47
2023/02/05 13:00:10;;;;;;;6.65;4.43;;;;;;;;;;5030156;28;20099;-47
2023/02/05 13:02:41;;;;;;;8.38;3.83;;;;;;;;;;5042815;28;20480;-47
2023/02/05 13:05:25;;;;;;;4.15;2.95;;;;;;;;;;5040324;28;20090;-47
2023/02/05 13:07:57;;;;;;;3.70;2.20;;;;;;;;;;5030277;28;20033;-47
2023/02/05 13:10:25;;;;;;;4.35;2.67;;;;;;;;;;5017842;28;20116;-47
2023/02/05 13:13:01;;;;;;;6.75;3.22;;;3.30;94.40;;;;;;5035555;28;20083;-47
2023/02/05 13:15:39;;;;;;;3.78;3.03;;;2.70;94.10;;;;;;5038533;28;20099;-46
2023/02/05 13:18:24;;;;;;;3.95;2.50;;;3.30;94.90;;;;;;5039036;28;20556;-48
2023/02/05 13:29:30;;;;;;;10.07;5.28;;;3.10;90.10;;;;;;5040415;28;20435;-47
2023/02/05 13:32:12;;;;;;;10.85;5.20;;;3.30;94.40;;;;;;5041774;28;20484;-47
2023/02/05 13:34:39;;;;;;;6.82;3.30;;;3.00;90.50;;;;;;5022636;28;20037;-49
2023/02/05 13:37:17;;;;;;;3.80;2.50;;;3.00;94.60;;;;;;5049226;28;20112;-47
2023/02/05 13:40:07;;;;;;;13.13;5.90;;;2.90;90.80;;;;;;5058247;28;20021;-47
2023/02/05 13:42:33;;;;;;;5.80;3.67;;;2.60;94.40;;;;;;5052264;28;20110;-46
2023/02/05 13:45:24;;;;;;;10.07;4.47;;;2.80;90.60;;;;;;5054378;28;20473;-47
2023/02/05 13:48:09;;;;;;;6.30;3.38;;;2.80;90.90;;;;;;5059546;28;20115;-47
2023/02/05 13:50:43;;;;;;;11.68;3.88;;;2.80;93.40;;;;;;5053016;28;20067;-47
2023/02/05 13:53:40;;;;;;;7.75;3.53;;;2.60;95.30;;;;;;5043839;28;20036;-46
2023/02/05 13:56:24;;;;;;;5.88;3.22;;;2.90;95.50;;;;;;5058844;28;20174;-47